createdAt,value
2023-04-09T00:02:14.592Z,1.07
2023-04-09T00:07:16.258Z,1.06
2023-04-09T00:12:17.923Z,0.90
2023-04-09T00:17:19.565Z,0.88
2023-04-09T00:22:21.194Z,0.41
2023-04-09T00:27:23.165Z,0.51
2023-04-09T00:32:24.815Z,0.61
2023-04-09T00:37:26.506Z,0.54
2023-04-09T00:42:32.265Z,0.75
2023-04-09T00:47:35.034Z,0.62
2023-04-09T00:52:36.772Z,0.33
2023-04-09T00:57:38.380Z,0.30
2023-04-09T01:02:40.957Z,0.36
2023-04-09T01:07:54.998Z,0.59
2023-04-09T01:13:26.113Z,0.62
2023-04-09T01:18:36.345Z,0.90
2023-04-09T01:23:56.119Z,0.88
2023-04-09T01:29:00.504Z,0.84
2023-04-09T01:34:02.452Z,1.00
2023-04-09T01:39:06.233Z,0.79
2023-04-09T01:44:08.994Z,0.76
2023-04-09T01:49:11.178Z,0.74
2023-04-09T01:54:13.013Z,0.71
2023-04-09T01:59:15.857Z,0.78
2023-04-09T02:10:58.720Z,0.54
2023-04-09T02:16:01.735Z,0.59
2023-04-09T02:21:05.667Z,0.69
2023-04-09T02:26:07.403Z,0.50
2023-04-09T02:31:09.158Z,0.47
2023-04-09T02:36:13.953Z,0.48
2023-04-09T02:41:15.960Z,0.46
2023-04-09T02:46:17.684Z,0.17
2023-04-09T02:51:20.221Z,0.26
2023-04-09T02:56:21.851Z,0.44
2023-04-09T03:01:23.542Z,0.37
2023-04-09T03:06:25.449Z,0.33
2023-04-09T03:11:27.169Z,0.20
2023-04-09T03:16:28.810Z,0.12
2023-04-09T03:21:30.675Z,0.29
2023-04-09T03:26:36.505Z,0.25
2023-04-09T03:31:40.101Z,0.46
2023-04-09T03:36:42.786Z,0.27
2023-04-09T03:41:58.217Z,0.54
2023-04-09T03:47:03.708Z,0.31
2023-04-09T03:52:06.765Z,0.59
2023-04-09T03:57:12.667Z,0.47
2023-04-09T04:02:16.827Z,0.59
2023-04-09T04:07:23.055Z,0.81
2023-04-09T04:12:31.879Z,0.59
2023-04-09T04:17:43.699Z,0.82
2023-04-09T04:22:57.884Z,1.07
2023-04-09T04:28:00.968Z,0.91
2023-04-09T04:33:11.473Z,0.94
2023-04-09T04:38:19.334Z,1.31
2023-04-09T04:43:20.996Z,1.33
2023-04-09T04:48:25.697Z,1.16
2023-04-09T04:53:27.885Z,1.21
2023-04-09T04:58:32.044Z,1.04
2023-04-09T05:03:36.080Z,1.34
2023-04-09T05:08:46.403Z,1.44
2023-04-09T05:13:48.914Z,1.70
2023-04-09T05:18:51.015Z,1.67
2023-04-09T05:23:53.070Z,2.00
2023-04-09T05:28:54.876Z,2.09
2023-04-09T05:33:58.080Z,2.38
2023-04-09T05:39:09.263Z,2.39
2023-04-09T05:44:11.911Z,2.84
2023-04-09T05:49:14.628Z,4.45
2023-04-09T05:54:18.261Z,5.73
2023-04-09T05:59:19.963Z,5.53
2023-04-09T06:04:21.951Z,6.63
2023-04-09T06:09:23.664Z,8.00
2023-04-09T06:14:25.351Z,9.34
2023-04-09T06:19:27.248Z,10.45
2023-04-09T06:24:30.937Z,10.40
2023-04-09T06:29:32.570Z,7.01
2023-04-09T06:34:34.172Z,7.33
2023-04-09T06:39:36.523Z,9.23
2023-04-09T06:44:39.029Z,10.35
2023-04-09T06:49:40.623Z,9.97
2023-04-09T06:54:42.707Z,12.82
2023-04-09T06:59:44.391Z,12.87
2023-04-09T07:04:46.081Z,12.23
2023-04-09T07:09:48.645Z,11.95
2023-04-09T07:14:50.268Z,12.84
2023-04-09T07:19:51.988Z,13.10
2023-04-09T07:24:54.445Z,15.63
2023-04-09T07:29:59.807Z,16.46
2023-04-09T07:35:03.103Z,17.20
2023-04-09T07:40:05.146Z,17.62
2023-04-09T07:45:07.474Z,21.02
2023-04-09T07:50:09.612Z,21.93
2023-04-09T07:55:11.327Z,22.25
2023-04-09T08:00:13.392Z,23.97
2023-04-09T08:05:15.077Z,21.01
2023-04-09T08:10:16.991Z,21.40
2023-04-09T08:15:18.738Z,20.90
2023-04-09T08:20:20.824Z,22.50
2023-04-09T08:25:22.528Z,23.69
2023-04-09T08:30:24.153Z,24.12
2023-04-09T08:35:25.768Z,25.39
2023-04-09T08:40:28.778Z,22.68
2023-04-09T08:45:30.492Z,24.11
2023-04-09T08:50:36.098Z,19.18
2023-04-09T08:55:38.553Z,22.57
2023-04-09T09:00:41.165Z,20.31
2023-04-09T09:05:45.767Z,21.36
2023-04-09T09:10:47.758Z,22.07
2023-04-09T09:15:55.055Z,22.44
2023-04-09T09:21:17.521Z,22.02
2023-04-09T09:26:22.997Z,21.47
2023-04-09T09:31:25.734Z,22.57
2023-04-09T09:36:35.637Z,19.33
2023-04-09T09:41:37.981Z,21.12
2023-04-09T09:46:42.772Z,18.18
2023-04-09T09:51:44.854Z,19.85
2023-04-09T09:56:47.410Z,19.64
2023-04-09T10:01:57.330Z,18.74
2023-04-09T10:07:01.825Z,18.69
2023-04-09T10:12:05.509Z,18.72
2023-04-09T10:17:07.705Z,18.76
2023-04-09T10:22:11.943Z,18.11
2023-04-09T10:27:17.067Z,19.20
2023-04-09T10:32:26.599Z,18.97
2023-04-09T10:37:28.862Z,18.06
2023-04-09T10:42:35.433Z,16.87
2023-04-09T10:47:39.363Z,16.05
2023-04-09T10:52:44.539Z,15.72
2023-04-09T10:57:46.238Z,14.71
2023-04-09T11:03:02.938Z,13.92
2023-04-09T11:08:09.895Z,14.54
2023-04-09T11:13:13.524Z,14.76
2023-04-09T11:18:19.851Z,14.95
2023-04-09T11:23:21.584Z,15.09
2023-04-09T11:28:23.932Z,16.41
2023-04-09T11:33:32.550Z,18.00
2023-04-09T11:38:34.165Z,18.91
2023-04-09T11:43:36.623Z,16.28
2023-04-09T11:48:38.281Z,15.14
2023-04-09T11:53:40.769Z,16.05
2023-04-09T11:58:49.110Z,14.91
2023-04-09T12:03:54.761Z,15.88
2023-04-09T12:08:58.689Z,15.06
2023-04-09T12:14:12.632Z,16.30
2023-04-09T12:19:14.248Z,18.38
2023-04-09T12:24:17.210Z,18.86
2023-04-09T12:29:21.384Z,19.25
2023-04-09T12:34:23.040Z,17.32
2023-04-09T12:39:24.667Z,16.52
2023-04-09T12:44:26.491Z,15.50
2023-04-09T12:49:28.106Z,16.58
2023-04-09T12:54:29.816Z,16.86
2023-04-09T12:59:31.511Z,16.18
2023-04-09T13:04:33.341Z,16.14
2023-04-09T13:09:35.501Z,15.96
2023-04-09T13:14:40.100Z,16.15
2023-04-09T13:19:42.826Z,15.85
2023-04-09T13:24:44.618Z,17.15
2023-04-09T13:29:46.244Z,15.54
2023-04-09T13:34:47.942Z,16.01
2023-04-09T13:39:50.520Z,16.30
2023-04-09T13:44:52.191Z,17.06
2023-04-09T13:49:53.826Z,17.43
2023-04-09T13:54:55.587Z,16.56
2023-04-09T13:59:57.221Z,17.70
2023-04-09T14:04:58.848Z,15.77
2023-04-09T14:10:00.498Z,15.41
2023-04-09T14:15:02.477Z,15.37
2023-04-09T14:20:04.415Z,15.21
2023-04-09T14:25:06.720Z,14.90
2023-04-09T14:30:10.354Z,14.69
2023-04-09T14:35:12.005Z,14.89
2023-04-09T14:40:13.854Z,15.55
2023-04-09T14:45:15.868Z,15.23
2023-04-09T14:50:17.565Z,15.08
2023-04-09T14:55:19.228Z,14.69
2023-04-09T15:00:21.189Z,14.80
2023-04-09T15:05:22.987Z,14.94
2023-04-09T15:10:24.732Z,14.97
2023-04-09T15:15:26.872Z,14.65
2023-04-09T15:20:28.509Z,14.69
2023-04-09T15:25:30.731Z,13.95
2023-04-09T15:30:32.716Z,14.13
2023-04-09T15:35:35.261Z,14.17
2023-04-09T15:40:36.904Z,14.07
2023-04-09T15:45:38.539Z,14.00
2023-04-09T15:50:40.198Z,14.30
2023-04-09T15:55:42.443Z,13.98
2023-04-09T16:00:44.064Z,13.04
2023-04-09T16:05:48.073Z,13.06
2023-04-09T16:10:49.710Z,13.10
2023-04-09T16:15:51.318Z,13.44
2023-04-09T16:20:54.137Z,13.24
2023-04-09T16:25:55.738Z,13.22
2023-04-09T16:30:57.352Z,13.19
2023-04-09T16:35:58.989Z,13.12
2023-04-09T16:41:00.930Z,12.96
2023-04-09T16:46:02.664Z,12.83
2023-04-09T16:51:04.443Z,12.75
2023-04-09T16:56:07.005Z,12.59
2023-04-09T17:01:08.761Z,12.59
2023-04-09T17:06:10.441Z,12.40
2023-04-09T17:11:16.574Z,12.46
2023-04-09T17:16:18.436Z,12.35
2023-04-09T17:21:20.357Z,12.18
2023-04-09T17:26:21.987Z,11.94
2023-04-09T17:31:24.483Z,11.83
2023-04-09T17:36:26.323Z,11.72
2023-04-09T17:41:27.972Z,11.35
2023-04-09T17:46:30.352Z,11.16
2023-04-09T17:51:32.024Z,10.83
2023-04-09T17:56:35.536Z,10.40
2023-04-09T18:01:37.303Z,10.02
2023-04-09T18:06:38.981Z,9.80
2023-04-09T18:11:40.840Z,9.51
2023-04-09T18:16:42.734Z,9.43
2023-04-09T18:21:44.401Z,9.26
2023-04-09T18:26:46.017Z,9.17
2023-04-09T18:31:47.654Z,8.88
2023-04-09T18:36:50.200Z,8.75
2023-04-09T18:41:51.792Z,8.83
2023-04-09T18:46:53.450Z,8.79
2023-04-09T18:51:56.738Z,8.65
2023-04-09T18:56:58.414Z,8.60
2023-04-09T19:02:00.912Z,8.40
2023-04-09T19:07:02.950Z,8.08
2023-04-09T19:12:05.025Z,7.92
2023-04-09T19:17:07.333Z,7.95
2023-04-09T19:22:08.968Z,7.93
2023-04-09T19:27:11.562Z,7.93
2023-04-09T19:32:13.417Z,7.76
2023-04-09T19:37:16.481Z,7.69
2023-04-09T19:42:18.087Z,7.58
2023-04-09T19:47:19.843Z,7.63
2023-04-09T19:52:21.808Z,7.62
2023-04-09T19:57:23.502Z,7.88
2023-04-09T20:02:25.581Z,7.88
2023-04-09T20:07:27.329Z,7.83
2023-04-09T20:12:29.652Z,7.77
2023-04-09T20:17:32.067Z,7.66
2023-04-09T20:22:33.976Z,7.58
2023-04-09T20:27:35.611Z,7.49
2023-04-09T20:32:37.846Z,7.16
2023-04-09T20:37:40.766Z,7.24
2023-04-09T20:42:42.519Z,7.20
2023-04-09T20:47:44.180Z,7.23
2023-04-09T20:52:45.866Z,7.35
2023-04-09T20:57:47.478Z,7.00
2023-04-09T21:02:49.229Z,6.78
2023-04-09T21:07:52.369Z,6.63
2023-04-09T21:12:54.055Z,6.56
2023-04-09T21:17:55.726Z,6.40
2023-04-09T21:22:57.986Z,6.34
2023-04-09T21:27:59.713Z,6.33
2023-04-09T21:33:02.358Z,6.18
2023-04-09T21:38:04.318Z,6.16
2023-04-09T21:43:05.970Z,5.95
2023-04-09T21:48:09.219Z,5.99
2023-04-09T21:53:11.038Z,6.14
2023-04-09T21:58:12.735Z,6.05
2023-04-09T22:03:14.478Z,6.21
2023-04-09T22:08:16.237Z,5.89
2023-04-09T22:13:17.847Z,5.69
2023-04-09T22:18:19.472Z,5.72
2023-04-09T22:23:21.389Z,5.69
2023-04-09T22:28:24.167Z,5.66
2023-04-09T22:33:28.854Z,5.48
2023-04-09T22:38:30.610Z,5.44
2023-04-09T22:43:32.321Z,5.16
2023-04-09T22:48:40.771Z,5.22
2023-04-09T22:53:46.788Z,5.12
2023-04-09T22:58:48.472Z,4.96
2023-04-09T23:03:50.568Z,4.69
2023-04-09T23:08:52.592Z,4.59
2023-04-09T23:13:54.565Z,4.50
2023-04-09T23:18:56.389Z,4.64
2023-04-09T23:23:58.192Z,4.59
2023-04-09T23:28:59.793Z,4.30
2023-04-09T23:34:01.414Z,4.05
2023-04-09T23:39:03.479Z,4.02
2023-04-09T23:44:05.395Z,4.09
2023-04-09T23:49:07.056Z,3.93
2023-04-09T23:54:08.670Z,3.93
2023-04-09T23:59:10.355Z,3.83
